Southern Baltic, Poland
Current Conditions -  °F | °C
As of 10:30 PM on Thursday 23 Oct 2014 (Local Time) from EPGD Reporting Station
Broken Clouds Broken Clouds  
Wind Chill: 34°   Ceiling: 900
Heat Index: 39°   Visibility: 6mi
Dew Point: 36°   Wind: 8mph
Humidity: 87%   Direction: 140°SE
Pressure: 30.3"   Gusts: NA
Location:  55.25°N, 18.25°E
Report Text: EPGD 232030Z 14007KT 9999 BKN009 04/02 Q1026
Loading
Personal Weather Stations






























Interactive Weather Map
Tropical Storm Tracking
New forecast layout! Learn more

10-Day Weather Forecast

Advertisements
Track Severe Weather on mobile